Time;durP1;ratioP1;P1;durP2;ratioP2;P2;SDS_P1;SDS_P2;PMS_P1;PMS_P2;Temp;Humidity;BMP_temperature;BMP_pressure;BME280_temperature;BME280_humidity;BME280_pressure;Samples;Min_cycle;Max_cycle;Signal;HPM_P1;HPM_P2
2022/06/17 00:00:24;;;;;;;2.63;1.20;;;18.20;54.70;;;;;;5049697;28;20618;-86
2022/06/17 00:02:51;;;;;;;1.17;1.07;;;18.10;58.20;;;;;;5050358;28;21160;-86
2022/06/17 00:05:18;;;;;;;1.07;1.00;;;18.20;54.90;;;;;;5050444;28;20679;-85
2022/06/17 00:07:46;;;;;;;1.20;1.10;;;18.20;54.80;;;;;;5050156;28;20703;-86
2022/06/17 00:10:22;;;;;;;0.93;0.87;;;18.10;55.60;;;;;;5050201;28;20620;-84
2022/06/17 00:12:51;;;;;;;0.80;0.80;;;18.20;59.00;;;;;;5050590;28;20622;-85
2022/06/17 00:15:19;;;;;;;1.03;0.87;;;18.20;60.50;;;;;;5049502;28;20713;-87
2022/06/17 00:17:50;;;;;;;1.10;1.00;;;18.00;55.70;;;;;;5050203;28;20657;-86
2022/06/17 00:20:21;;;;;;;0.77;0.77;;;18.00;56.50;;;;;;5050143;28;20637;-87
2022/06/17 00:22:51;;;;;;;1.03;0.93;;;17.90;56.40;;;;;;5049958;28;20615;-85
2022/06/17 00:25:28;;;;;;;1.77;1.33;;;17.90;56.80;;;;;;5049658;28;20645;-86
2022/06/17 00:27:56;;;;;;;1.30;1.23;;;17.90;56.80;;;;;;5049813;28;20610;-85
2022/06/17 00:30:25;;;;;;;1.40;1.30;;;17.80;56.00;;;;;;5050097;28;20613;-86
2022/06/17 00:32:54;;;;;;;0.90;0.90;;;17.60;56.40;;;;;;5050317;28;20617;-86
2022/06/17 00:35:23;;;;;;;1.60;0.90;;;17.50;56.70;;;;;;5050183;28;20614;-86
2022/06/17 00:37:52;;;;;;;0.70;0.60;;;17.50;57.10;;;;;;5049891;28;20649;-85
2022/06/17 00:40:22;;;;;;;1.30;1.20;;;18.60;63.80;;;;;;5048927;28;20730;-88
2022/06/17 00:42:51;;;;;;;1.40;0.97;;;17.50;57.70;;;;;;5050071;28;20642;-85
2022/06/17 00:45:27;;;;;;;1.07;1.00;;;17.40;57.90;;;;;;5049694;28;20618;-86
2022/06/17 00:48:01;;;;;;;1.30;1.20;;;17.30;58.20;;;;;;5049526;28;21239;-85
2022/06/17 00:50:37;;;;;;;0.83;0.73;;;17.10;58.70;;;;;;5049385;28;20615;-87
2022/06/17 00:53:17;;;;;;;1.07;1.00;;;17.10;59.30;;;;;;5049890;28;20653;-85
2022/06/17 00:55:48;;;;;;;0.80;0.80;;;17.10;59.10;;;;;;5049537;28;20610;-86
2022/06/17 00:58:23;;;;;;;1.10;1.00;;;17.00;59.60;;;;;;5049712;28;20989;-85
2022/06/17 01:00:53;;;;;;;1.30;0.97;;;16.90;59.60;;;;;;5049272;28;21005;-84
2022/06/17 01:03:24;;;;;;;0.90;0.90;;;16.80;59.90;;;;;;5049078;28;20677;-86
2022/06/17 01:05:55;;;;;;;1.40;1.30;;;16.60;59.70;;;;;;5048764;28;20595;-84
2022/06/17 01:11:23;;;;;;;1.50;0.90;;;16.60;60.20;;;;;;5048433;28;20602;-85
2022/06/17 01:13:52;;;;;;;1.20;1.10;;;16.50;60.90;;;;;;5049747;28;20646;-87
2022/06/17 01:16:24;;;;;;;0.57;0.57;;;16.60;61.40;;;;;;5048929;28;20617;-85
2022/06/17 01:18:53;;;;;;;0.80;0.80;;;16.50;61.00;;;;;;5049221;28;20660;-86
2022/06/17 01:21:28;;;;;;;2.40;1.60;;;16.50;61.00;;;;;;5048391;28;21263;-85
2022/06/17 01:23:59;;;;;;;1.10;0.97;;;16.40;65.00;;;;;;5048395;28;21185;-86
2022/06/17 01:26:27;;;;;;;1.50;1.40;;;16.40;62.00;;;;;;5048368;28;20634;-85
2022/06/17 01:28:54;;;;;;;1.20;1.10;;;16.40;62.50;;;;;;5049051;28;20659;-85
2022/06/17 01:31:23;;;;;;;0.93;0.90;;;16.20;62.30;;;;;;5048678;28;20668;-85
2022/06/17 01:33:51;;;;;;;1.30;1.17;;;16.20;62.90;;;;;;5048956;28;20665;-86
2022/06/17 01:36:25;;;;;;;1.27;1.07;;;16.10;63.00;;;;;;5048302;28;20974;-85
2022/06/17 01:38:56;;;;;;;1.93;1.27;;;16.00;63.40;;;;;;5048568;28;20733;-86
2022/06/17 01:41:29;;;;;;;1.10;1.10;;;16.00;63.30;;;;;;5048528;28;20630;-85
2022/06/17 01:43:59;;;;;;;1.17;1.07;;;15.90;62.30;;;;;;5049183;28;21246;-85
2022/06/17 01:46:32;;;;;;;1.30;1.20;;;16.00;62.80;;;;;;5048192;28;20606;-86
2022/06/17 01:49:05;;;;;;;1.60;1.10;;;15.60;68.70;;;;;;5047893;28;20702;-84
2022/06/17 01:51:36;;;;;;;1.20;1.00;;;15.90;68.90;;;;;;5048289;28;20614;-85
2022/06/17 01:54:07;;;;;;;1.43;0.80;;;15.80;63.80;;;;;;5048397;28;20611;-87
2022/06/17 01:56:39;;;;;;;1.30;0.90;;;15.70;63.10;;;;;;5047771;28;20729;-85
2022/06/17 01:59:11;;;;;;;1.30;1.20;;;15.70;65.10;;;;;;5048400;28;20614;-88
2022/06/17 02:01:44;;;;;;;1.03;1.03;;;15.70;65.60;;;;;;5047705;28;20630;-85
2022/06/17 02:04:13;;;;;;;1.30;1.10;;;15.70;66.20;;;;;;5048486;28;21176;-85
2022/06/17 02:06:46;;;;;;;1.90;1.63;;;15.80;73.30;;;;;;5047980;28;20743;-85
2022/06/17 02:09:13;;;;;;;1.03;1.03;;;15.80;66.60;;;;;;5048270;28;21002;-87
2022/06/17 02:11:42;;;;;;;1.60;1.50;;;16.00;68.80;;;;;;5048351;28;20618;-85
2022/06/17 02:14:09;;;;;;;1.10;1.10;;;15.80;72.40;;;;;;5048219;28;20618;-86
2022/06/17 02:16:39;;;;;;;1.30;1.20;;;15.70;68.00;;;;;;5047567;28;20661;-84
2022/06/17 02:19:06;;;;;;;1.50;1.40;;;;;;;;;;5048314;28;20622;-87
2022/06/17 02:21:36;;;;;;;1.30;1.10;;;15.50;67.70;;;;;;5047319;28;20696;-84
2022/06/17 02:24:05;;;;;;;2.00;0.80;;;15.30;73.10;;;;;;5047469;28;21264;-87
2022/06/17 02:26:35;;;;;;;1.10;1.03;;;15.00;73.70;;;;;;5047085;28;20658;-85
2022/06/17 02:29:07;;;;;;;1.10;1.00;;;15.20;67.90;;;;;;5047841;28;20787;-85
2022/06/17 02:31:35;;;;;;;2.00;1.67;;;15.20;69.20;;;;;;5048473;28;20649;-85
2022/06/17 02:34:05;;;;;;;1.10;1.00;;;15.20;68.70;;;;;;5047942;28;20625;-85
2022/06/17 02:36:38;;;;;;;1.20;1.10;;;15.20;68.30;;;;;;5047526;28;20641;-85
2022/06/17 02:39:05;;;;;;;1.40;1.30;;;15.30;73.70;;;;;;5047230;28;21188;-87
2022/06/17 02:41:33;;;;;;;1.37;1.27;;;15.20;68.70;;;;;;5047688;28;20610;-85
2022/06/17 02:44:06;;;;;;;1.80;1.70;;;15.00;68.30;;;;;;5047496;28;21230;-85
2022/06/17 02:46:37;;;;;;;1.33;0.90;;;15.10;70.50;;;;;;5047340;28;20957;-85
2022/06/17 02:49:07;;;;;;;1.60;1.27;;;15.20;69.30;;;;;;5047644;28;20705;-86
2022/06/17 02:51:38;;;;;;;1.03;0.93;;;14.80;74.40;;;;;;5047613;28;20642;-85
2022/06/17 02:54:07;;;;;;;2.10;1.30;;;15.00;69.00;;;;;;5047667;28;20666;-85
2022/06/17 02:56:36;;;;;;;0.97;0.97;;;15.00;69.50;;;;;;5047210;28;20663;-85
2022/06/17 02:59:11;;;;;;;2.10;1.20;;;14.60;74.70;;;;;;5047604;28;20654;-86
2022/06/17 03:01:41;;;;;;;1.30;1.20;;;14.90;71.30;;;;;;5047662;28;20653;-85
2022/06/17 03:04:13;;;;;;;1.67;1.50;;;14.70;72.40;;;;;;5047666;28;20653;-85
2022/06/17 03:06:42;;;;;;;1.60;1.50;;;14.70;73.40;;;;;;5047755;28;20712;-84
2022/06/17 03:09:19;;;;;;;1.40;1.30;;;14.60;74.10;;;;;;5047687;28;20828;-86
2022/06/17 03:11:53;;;;;;;2.00;1.60;;;14.40;72.60;;;;;;5047414;28;20705;-85
2022/06/17 03:14:24;;;;;;;1.53;1.43;;;14.30;74.00;;;;;;5047088;28;20716;-84
2022/06/17 03:16:52;;;;;;;1.87;1.17;;;14.50;73.00;;;;;;5047272;28;20711;-85
2022/06/17 03:19:20;;;;;;;1.20;1.20;;;14.50;74.30;;;;;;5047380;28;21148;-85
2022/06/17 03:21:47;;;;;;;1.50;1.40;;;14.70;79.30;;;;;;5047128;28;20610;-85
2022/06/17 03:24:19;;;;;;;1.07;0.97;;;14.50;73.80;;;;;;5047435;28;20711;-86
2022/06/17 03:26:51;;;;;;;1.13;1.13;;;14.70;81.40;;;;;;5046644;28;20676;-85
2022/06/17 03:29:22;;;;;;;1.73;1.47;;;14.50;75.50;;;;;;5047147;28;20705;-85
2022/06/17 03:31:52;;;;;;;3.13;2.93;;;14.50;75.80;;;;;;5047621;28;20690;-85
2022/06/17 03:34:24;;;;;;;3.90;3.47;;;14.50;76.70;;;;;;5047631;28;20818;-86
2022/06/17 03:36:56;;;;;;;1.93;1.83;;;14.40;77.20;;;;;;5050028;28;20625;-84
2022/06/17 03:39:33;;;;;;;1.10;1.00;;;14.50;77.80;;;;;;5050531;28;21173;-85
2022/06/17 03:42:06;;;;;;;1.77;1.50;;;14.50;77.10;;;;;;5051221;28;20614;-84
2022/06/17 03:44:37;;;;;;;1.40;1.30;;;14.50;77.50;;;;;;5050723;28;20675;-87
2022/06/17 03:47:10;;;;;;;3.37;1.90;;;14.40;77.80;;;;;;5050301;28;21188;-85
2022/06/17 03:49:47;;;;;;;1.07;1.00;;;14.40;77.50;;;;;;5050778;28;20660;-85
2022/06/17 03:52:26;;;;;;;1.20;1.10;;;14.40;77.90;;;;;;5051083;28;20617;-86
2022/06/17 03:54:53;;;;;;;1.17;1.17;;;14.60;76.70;;;;;;5050520;28;20622;-84
2022/06/17 03:57:20;;;;;;;1.50;1.27;;;14.50;77.20;;;;;;5050308;28;20685;-84
2022/06/17 03:59:50;;;;;;;0.93;0.93;;;15.10;82.80;;;;;;5050597;28;20642;-85
2022/06/17 04:02:19;;;;;;;0.70;0.70;;;14.60;75.30;;;;;;5049864;28;20614;-85
2022/06/17 04:04:50;;;;;;;1.33;1.20;;;14.70;75.80;;;;;;5050614;28;20959;-85
2022/06/17 04:07:17;;;;;;;1.40;1.30;;;14.80;75.90;;;;;;5050490;28;20614;-85
2022/06/17 04:09:47;;;;;;;1.47;1.20;;;14.80;76.00;;;;;;5050491;28;20727;-85
2022/06/17 04:12:21;;;;;;;1.10;1.00;;;14.90;75.80;;;;;;5050678;28;20649;-85
2022/06/17 04:14:58;;;;;;;2.00;1.37;;;14.60;82.60;;;;;;5049891;28;20602;-86
2022/06/17 04:17:31;;;;;;;0.50;0.50;;;14.90;76.70;;;;;;5049859;28;21116;-85
2022/06/17 04:20:15;;;;;;;4.80;1.23;;;14.90;76.30;;;;;;5050485;28;21253;-85
2022/06/17 04:22:46;;;;;;;0.90;0.90;;;14.90;77.10;;;;;;5049402;28;20733;-85
2022/06/17 04:25:19;;;;;;;1.10;1.00;;;14.90;75.70;;;;;;5049410;28;20622;-86
2022/06/17 04:27:58;;;;;;;1.13;0.87;;;15.00;76.10;;;;;;5049960;28;20613;-86
2022/06/17 04:30:32;;;;;;;0.87;0.87;;;15.00;76.00;;;;;;5049951;28;20964;-86
2022/06/17 04:33:02;;;;;;;1.27;1.17;;;15.00;76.20;;;;;;5050507;28;20734;-84
2022/06/17 04:35:29;;;;;;;1.00;1.00;;;15.10;76.20;;;;;;5049486;28;20725;-87
2022/06/17 04:37:56;;;;;;;1.40;1.30;;;14.80;82.60;;;;;;5049326;28;20615;-86
2022/06/17 04:40:32;;;;;;;1.43;1.43;;;14.80;83.00;;;;;;5049467;28;20713;-85
2022/06/17 04:43:01;;;;;;;2.13;1.33;;;15.10;76.50;;;;;;5050310;28;21068;-86
2022/06/17 04:45:30;;;;;;;1.67;1.33;;;15.10;75.20;;;;;;5049587;28;20674;-85
2022/06/17 04:47:58;;;;;;;1.00;1.00;;;15.30;75.70;;;;;;5048953;28;21076;-85
2022/06/17 04:50:27;;;;;;;0.90;0.90;;;15.30;75.30;;;;;;5049903;28;20697;-85
2022/06/17 04:52:55;;;;;;;1.40;1.10;;;15.40;75.10;;;;;;5050175;28;20638;-85
2022/06/17 04:55:29;;;;;;;1.63;1.23;;;15.40;76.30;;;;;;5049247;28;21210;-86
2022/06/17 04:57:56;;;;;;;1.30;1.17;;;15.40;75.60;;;;;;5049338;28;20727;-85
2022/06/17 05:00:29;;;;;;;1.27;1.17;;;15.40;77.10;;;;;;5049647;28;20598;-84
2022/06/17 05:02:57;;;;;;;1.17;1.07;;;15.50;77.20;;;;;;5049364;28;21191;-86
2022/06/17 05:05:32;;;;;;;1.27;1.17;;;15.40;76.90;;;;;;5049344;28;20711;-85
2022/06/17 05:08:00;;;;;;;1.07;1.00;;;15.50;76.50;;;;;;5049122;28;20732;-84
2022/06/17 05:10:30;;;;;;;8.20;1.47;;;15.50;76.90;;;;;;5049001;28;20629;-84
2022/06/17 05:13:02;;;;;;;1.37;1.27;;;15.60;77.30;;;;;;5049364;28;20610;-86
2022/06/17 05:15:31;;;;;;;1.40;1.30;;;15.70;76.90;;;;;;5048966;28;20675;-85
2022/06/17 05:17:58;;;;;;;1.40;1.33;;;15.90;75.80;;;;;;5049223;28;20610;-85
2022/06/17 05:20:26;;;;;;;1.17;1.00;;;16.00;73.40;;;;;;5049248;28;20676;-85
2022/06/17 05:22:57;;;;;;;1.47;1.37;;;16.10;74.40;;;;;;5048499;28;20607;-85
2022/06/17 05:25:26;;;;;;;0.80;0.80;;;16.20;74.20;;;;;;5048863;28;20723;-85
2022/06/17 05:27:53;;;;;;;1.43;1.13;;;16.70;79.90;;;;;;5048338;28;20676;-86
2022/06/17 05:30:21;;;;;;;0.97;0.90;;;16.50;72.40;;;;;;5049045;28;20721;-86
2022/06/17 05:32:53;;;;;;;1.13;1.00;;;16.60;72.10;;;;;;5048840;28;21187;-85
2022/06/17 05:35:21;;;;;;;1.73;1.03;;;16.60;72.90;;;;;;5048925;28;20724;-88
2022/06/17 05:37:48;;;;;;;1.30;1.10;;;;;;;;;;5048399;28;20618;-86
2022/06/17 05:40:15;;;;;;;1.20;1.10;;;17.20;75.50;;;;;;5047681;28;20668;-87
2022/06/17 05:42:44;;;;;;;1.03;0.93;;;17.00;69.60;;;;;;5049018;28;20610;-86
2022/06/17 05:45:15;;;;;;;1.53;1.43;;;17.00;68.60;;;;;;5048734;28;20627;-87
2022/06/17 05:47:43;;;;;;;1.17;0.80;;;;;;;;;;5048025;28;21471;-86
2022/06/17 05:50:12;;;;;;;1.00;1.00;;;17.20;69.10;;;;;;5048643;28;20760;-88
2022/06/17 05:52:51;;;;;;;0.90;0.90;;;17.30;69.70;;;;;;5047990;28;20793;-87
2022/06/17 05:55:18;;;;;;;2.63;1.30;;;17.30;69.00;;;;;;5048339;28;21010;-88
2022/06/17 05:57:45;;;;;;;1.50;1.07;;;17.30;69.50;;;;;;5046060;28;20665;-86
2022/06/17 06:00:14;;;;;;;2.07;1.50;;;17.30;68.70;;;;;;5047697;28;20672;-86
2022/06/17 06:02:41;;;;;;;1.03;1.03;;;17.40;68.40;;;;;;5048242;28;21055;-85
2022/06/17 06:05:12;;;;;;;2.07;1.07;;;17.50;67.60;;;;;;5048256;28;20649;-87
2022/06/17 06:07:40;;;;;;;1.07;1.03;;;17.50;68.40;;;;;;5048025;28;20619;-87
2022/06/17 06:10:08;;;;;;;1.30;1.20;;;17.70;68.60;;;;;;5048249;28;20692;-88
2022/06/17 06:12:57;;;;;;;2.00;1.67;;;17.80;67.80;;;;;;5048254;28;20614;-86
2022/06/17 06:15:26;;;;;;;1.30;1.20;;;17.70;72.00;;;;;;5048076;28;20622;-87
2022/06/17 06:17:53;;;;;;;1.53;1.40;;;18.20;71.70;;;;;;5046959;28;20634;-87
2022/06/17 06:20:22;;;;;;;1.07;1.07;;;18.00;68.00;;;;;;5048089;28;20629;-86
2022/06/17 06:22:50;;;;;;;0.83;0.83;;;18.30;73.00;;;;;;5047395;28;20929;-86
2022/06/17 06:25:19;;;;;;;1.47;1.37;;;18.20;67.30;;;;;;5047442;28;20695;-89
2022/06/17 06:27:46;;;;;;;2.23;1.70;;;18.20;66.90;;;;;;5047475;28;20617;-87
2022/06/17 06:30:20;;;;;;;1.50;1.40;;;18.40;70.80;;;;;;5046982;28;20728;-87
2022/06/17 06:32:52;;;;;;;0.90;0.80;;;18.40;65.50;;;;;;5047808;28;20646;-87
2022/06/17 06:35:20;;;;;;;0.90;0.90;;;18.60;64.20;;;;;;5047620;28;20625;-88
2022/06/17 06:37:52;;;;;;;1.10;1.10;;;18.60;64.90;;;;;;5047436;28;20622;-87
2022/06/17 06:40:19;;;;;;;5.03;1.17;;;18.50;67.50;;;;;;5047879;28;20705;-89
2022/06/17 06:42:48;;;;;;;1.73;0.83;;;18.30;69.20;;;;;;5047086;28;20618;-86
2022/06/17 06:45:18;;;;;;;1.67;1.23;;;18.60;65.10;;;;;;5047458;28;20914;-86
2022/06/17 06:47:46;;;;;;;1.57;0.90;;;18.80;64.60;;;;;;5047109;28;20625;-86
2022/06/17 06:50:16;;;;;;;1.57;1.17;;;18.80;64.60;;;;;;5047131;28;20689;-86
2022/06/17 06:52:43;;;;;;;1.20;1.10;;;18.70;64.00;;;;;;5047820;28;20648;-86
2022/06/17 06:55:12;;;;;;;1.27;1.17;;;18.90;64.40;;;;;;5047119;28;20664;-89
2022/06/17 06:57:45;;;;;;;2.60;2.40;;;19.10;65.40;;;;;;5047710;28;20695;-87
2022/06/17 07:00:15;;;;;;;1.13;1.03;;;19.00;64.60;;;;;;5047526;28;20610;-87
2022/06/17 07:02:42;;;;;;;1.07;1.07;;;19.10;64.60;;;;;;5047575;28;20679;-87
2022/06/17 07:05:09;;;;;;;1.50;1.40;;;19.40;65.00;;;;;;5047475;28;20676;-89
2022/06/17 07:07:36;;;;;;;1.50;1.40;;;19.50;65.30;;;;;;5046397;28;20618;-88
2022/06/17 07:10:03;;;;;;;1.50;1.40;;;18.70;67.50;;;;;;5049000;28;20710;-86
2022/06/17 07:12:32;;;;;;;2.50;1.70;;;19.70;64.50;;;;;;5051379;28;20624;-86
2022/06/17 07:14:59;;;;;;;2.03;1.63;;;19.90;64.90;;;;;;5051456;28;20910;-87
2022/06/17 07:17:26;;;;;;;1.60;1.50;;;19.90;64.00;;;;;;5050786;28;20614;-87
2022/06/17 07:19:53;;;;;;;0.80;0.80;;;;;;;;;;5051027;28;20649;-89
2022/06/17 07:22:21;;;;;;;0.93;0.93;;;;;;;;;;5050716;28;20621;-87
2022/06/17 07:24:48;;;;;;;1.20;1.13;;;19.90;62.00;;;;;;5050936;28;20634;-89
2022/06/17 07:27:14;;;;;;;1.67;1.57;;;20.00;65.10;;;;;;5051468;28;20715;-88
2022/06/17 07:29:43;;;;;;;1.57;1.43;;;20.30;61.90;;;;;;5051144;28;21216;-88
2022/06/17 07:32:10;;;;;;;1.20;1.10;;;;;;;;;;5050861;28;20604;-87
2022/06/17 07:34:37;;;;;;;1.67;1.10;;;20.80;62.60;;;;;;5050428;28;20672;-91
2022/06/17 07:39:55;;;;;;;1.53;1.40;;;;;;;;;;5051673;28;20622;-90
2022/06/17 07:42:23;;;;;;;1.77;1.40;;;21.30;68.00;;;;;;5031612;28;20607;-89
2022/06/17 07:44:52;;;;;;;2.00;1.80;;;21.20;59.40;;;;;;5031646;28;20613;-90
2022/06/17 07:47:23;;;;;;;1.60;1.10;;;21.30;59.80;;;;;;5029865;28;20634;-87
2022/06/17 07:49:50;;;;;;;3.60;1.77;;;;;;;;;;5030995;28;20654;-90
2022/06/17 07:52:19;;;;;;;1.50;1.40;;;21.50;58.70;;;;;;5030647;28;20623;-89
2022/06/17 07:54:47;;;;;;;2.20;1.90;;;;;;;;;;5031064;28;20612;-89
2022/06/17 07:57:16;;;;;;;2.20;2.00;;;21.30;64.20;;;;;;5030703;28;20600;-87
2022/06/17 07:59:43;;;;;;;1.70;1.50;;;;;;;;;;5030522;28;20630;-88
2022/06/17 08:02:11;;;;;;;1.67;1.57;;;21.90;58.40;;;;;;5032028;28;20618;-89
2022/06/17 08:04:40;;;;;;;1.87;1.77;;;;;;;;;;5031829;28;20622;-90
2022/06/17 08:07:08;;;;;;;1.77;1.57;;;;;;;;;;5030841;28;20715;-89
2022/06/17 08:09:35;;;;;;;1.93;1.40;;;;;;;;;;5030979;28;21099;-91
2022/06/17 08:12:03;;;;;;;2.30;2.10;;;22.00;57.50;;;;;;5031262;28;20611;-87
2022/06/17 08:14:30;;;;;;;2.43;1.87;;;;;;;;;;5030306;28;21214;-92
2022/06/17 08:16:57;;;;;;;1.20;1.20;;;22.00;58.80;;;;;;5031125;28;20634;-90
2022/06/17 08:19:26;;;;;;;2.60;2.10;;;22.40;62.50;;;;;;5030974;28;20619;-89
2022/06/17 08:21:53;;;;;;;1.57;1.47;;;;;;;;;;5029604;28;20619;-89
2022/06/17 08:24:20;;;;;;;1.90;1.80;;;;;;;;;;5031047;28;20628;-88
2022/06/17 08:26:48;;;;;;;1.80;1.70;;;;;;;;;;5029508;28;20638;-89
2022/06/17 08:29:15;;;;;;;1.60;1.50;;;22.10;58.40;;;;;;5030106;28;20666;-88
2022/06/17 08:31:42;;;;;;;1.13;1.13;;;;;;;;;;5032220;28;21150;-90
2022/06/17 08:34:09;;;;;;;1.67;1.57;;;;;;;;;;5030494;28;20630;-92
2022/06/17 08:36:37;;;;;;;1.70;1.60;;;22.50;57.20;;;;;;5029971;28;20612;-89
2022/06/17 08:39:09;;;;;;;1.83;1.73;;;22.40;58.10;;;;;;5038730;28;20622;-89
2022/06/17 08:41:38;;;;;;;1.03;1.03;;;22.40;58.10;;;;;;5050071;28;20618;-87
2022/06/17 08:44:28;;;;;;;1.80;1.70;;;22.10;56.00;;;;;;5049940;28;21172;-90
2022/06/17 08:47:18;;;;;;;1.50;1.27;;;22.60;57.60;;;;;;5051963;28;21142;-89
2022/06/17 08:50:09;;;;;;;1.67;1.57;;;22.60;56.40;;;;;;5050958;28;20674;-88
2022/06/17 08:52:53;;;;;;;2.13;1.93;;;22.90;55.60;;;;;;5050966;28;21275;-90
2022/06/17 08:55:26;;;;;;;1.93;1.80;;;23.20;55.70;;;;;;5050592;28;20972;-90
2022/06/17 08:58:00;;;;;;;1.80;1.70;;;23.40;55.50;;;;;;5051196;28;20622;-90
2022/06/17 09:00:36;;;;;;;5.27;3.40;;;23.30;55.80;;;;;;5051138;28;20614;-88
2022/06/17 09:03:28;;;;;;;1.63;1.53;;;23.30;56.40;;;;;;5049430;28;20617;-89
2022/06/17 09:06:07;;;;;;;2.30;2.10;;;23.10;56.00;;;;;;5052182;28;20626;-88
2022/06/17 09:08:54;;;;;;;1.50;1.40;;;23.30;55.00;;;;;;5050390;28;20621;-89
2022/06/17 09:11:28;;;;;;;2.20;2.00;;;23.70;55.20;;;;;;5052154;28;20663;-92
2022/06/17 09:14:13;;;;;;;2.10;2.00;;;23.80;54.40;;;;;;5051218;28;20602;-90
2022/06/17 09:16:49;;;;;;;2.27;2.17;;;24.00;55.40;;;;;;5050733;28;21042;-88
2022/06/17 09:19:20;;;;;;;2.10;2.00;;;24.20;54.50;;;;;;5051532;28;20976;-92
2022/06/17 09:21:51;;;;;;;1.47;1.40;;;24.20;56.90;;;;;;5049791;28;20671;-90
2022/06/17 09:24:24;;;;;;;1.83;1.73;;;24.30;55.20;;;;;;5051096;28;20618;-90
2022/06/17 09:26:55;;;;;;;1.50;1.40;;;24.20;54.80;;;;;;5051246;28;20614;-92
2022/06/17 09:29:27;;;;;;;1.90;1.80;;;24.30;55.90;;;;;;5050731;28;20638;-90
2022/06/17 09:32:09;;;;;;;1.50;1.40;;;24.40;54.60;;;;;;5050555;28;20614;-88
2022/06/17 09:34:50;;;;;;;2.17;1.97;;;24.80;53.40;;;;;;5052347;28;20633;-90
2022/06/17 09:37:25;;;;;;;1.60;1.50;;;24.70;52.30;;;;;;5050765;28;20626;-89
2022/06/17 09:39:58;;;;;;;1.57;1.47;;;24.60;53.40;;;;;;5052859;28;20625;-92
2022/06/17 09:42:34;;;;;;;1.90;1.70;;;24.60;53.20;;;;;;5034112;28;20629;-91
2022/06/17 09:45:07;;;;;;;2.77;1.90;;;25.00;53.70;;;;;;5035289;28;20614;-89
2022/06/17 09:47:38;;;;;;;1.80;1.70;;;24.90;53.30;;;;;;5033307;28;20626;-93
2022/06/17 09:50:12;;;;;;;2.60;2.10;;;24.80;52.70;;;;;;5031309;28;20686;-92
2022/06/17 09:52:43;;;;;;;2.03;1.87;;;25.10;53.90;;;;;;5032942;28;20631;-91
2022/06/17 09:55:20;;;;;;;1.97;1.87;;;25.20;52.30;;;;;;5032174;28;20634;-92
2022/06/17 09:57:51;;;;;;;2.33;2.13;;;25.50;52.10;;;;;;5033154;28;20607;-92
2022/06/17 10:00:21;;;;;;;2.00;1.90;;;25.50;52.30;;;;;;5031292;28;20637;-91
2022/06/17 10:02:51;;;;;;;2.67;2.47;;;25.70;52.70;;;;;;5030440;28;21201;-92
2022/06/17 10:05:33;;;;;;;2.23;1.80;;;25.80;52.50;;;;;;5030272;28;20627;-92
2022/06/17 10:08:08;;;;;;;2.43;2.23;;;25.60;50.60;;;;;;5032756;28;20612;-91
2022/06/17 10:10:47;;;;;;;2.57;2.37;;;25.60;51.80;;;;;;5031856;28;20646;-90
2022/06/17 10:13:24;;;;;;;2.30;2.10;;;25.80;51.10;;;;;;5029767;28;20730;-94
2022/06/17 10:19:01;;;;;;;2.50;2.30;;;25.70;51.20;;;;;;5033500;28;20622;-89
2022/06/17 10:21:53;;;;;;;1.77;1.67;;;25.90;50.80;;;;;;5030509;28;20618;-89
2022/06/17 10:24:28;;;;;;;1.93;1.77;;;26.30;51.20;;;;;;5029983;28;20634;-92
2022/06/17 10:27:09;;;;;;;2.00;1.90;;;26.00;52.60;;;;;;5029657;28;20611;-90
2022/06/17 10:30:12;;;;;;;2.13;2.03;;;25.80;51.00;;;;;;5029797;28;20650;-91
2022/06/17 10:32:42;;;;;;;2.20;2.00;;;26.20;49.80;;;;;;5027771;28;20615;-91
2022/06/17 10:35:16;;;;;;;2.17;1.97;;;26.60;49.80;;;;;;5031014;28;20714;-92
2022/06/17 10:37:43;;;;;;;1.60;1.50;;;;;;;;;;5030312;28;20705;-91
2022/06/17 10:40:16;;;;;;;2.17;1.93;;;27.20;49.10;;;;;;5046360;28;20661;-89
2022/06/17 10:42:47;;;;;;;1.87;1.77;;;27.20;46.80;;;;;;5052913;28;20599;-93
2022/06/17 10:45:16;;;;;;;1.90;1.80;;;27.30;48.80;;;;;;5053256;28;20615;-91
2022/06/17 10:47:57;;;;;;;1.57;1.47;;;26.70;48.00;;;;;;5050261;28;20740;-92
2022/06/17 10:50:27;;;;;;;1.93;1.83;;;26.90;49.10;;;;;;5053644;28;20681;-92
2022/06/17 10:53:13;;;;;;;1.60;1.50;;;27.40;49.50;;;;;;5051481;28;20703;-93
2022/06/17 10:55:43;;;;;;;2.33;2.10;;;27.60;45.90;;;;;;5050212;28;20617;-93
2022/06/17 10:58:18;;;;;;;1.50;1.40;;;27.80;45.90;;;;;;5052017;28;20622;-91
2022/06/17 11:00:53;;;;;;;3.80;1.90;;;28.00;48.00;;;;;;5053180;28;20625;-92
2022/06/17 11:03:27;;;;;;;2.10;1.83;;;28.10;48.50;;;;;;5049874;28;20697;-93
2022/06/17 11:06:06;;;;;;;2.93;1.70;;;28.10;48.80;;;;;;5052591;28;20631;-91
2022/06/17 11:08:42;;;;;;;2.43;2.23;;;28.00;46.80;;;;;;5050867;28;20640;-93
2022/06/17 11:14:02;;;;;;;2.10;2.00;;;28.20;45.80;;;;;;5048142;28;21356;-92
2022/06/17 11:16:43;;;;;;;2.10;2.00;;;28.00;43.40;;;;;;5050649;28;20760;-92
2022/06/17 11:19:15;;;;;;;1.77;1.40;;;28.50;43.60;;;;;;5049096;28;20633;-92
2022/06/17 11:21:46;;;;;;;1.90;1.80;;;28.80;44.10;;;;;;5049853;28;20700;-92
2022/06/17 11:24:28;;;;;;;2.27;2.07;;;29.00;42.80;;;;;;5051045;28;20733;-93
2022/06/17 11:27:07;;;;;;;1.63;1.53;;;28.90;44.30;;;;;;5049989;28;20625;-93
2022/06/17 11:29:42;;;;;;;1.60;1.50;;;29.60;42.50;;;;;;5048465;28;20622;-91
2022/06/17 11:32:29;;;;;;;1.70;1.60;;;29.90;41.40;;;;;;5050736;28;20618;-91
2022/06/17 11:34:58;;;;;;;2.00;1.90;;;30.20;40.10;;;;;;5049895;28;20725;-94
2022/06/17 11:37:27;;;;;;;1.70;1.60;;;30.10;43.10;;;;;;5051439;28;20623;-92
2022/06/17 11:40:16;;;;;;;1.50;1.40;;;30.50;43.70;;;;;;5049923;28;20620;-93
2022/06/17 11:42:53;;;;;;;1.43;1.33;;;30.10;41.30;;;;;;5050726;28;20622;-92
2022/06/17 11:45:31;;;;;;;1.60;1.50;;;30.90;43.90;;;;;;5048572;28;20626;-92
2022/06/17 11:48:05;;;;;;;1.67;1.57;;;29.10;41.10;;;;;;5048997;28;20626;-92
2022/06/17 11:50:35;;;;;;;2.00;1.70;;;31.60;39.30;;;;;;5049059;28;20642;-93
2022/06/17 11:53:11;;;;;;;1.87;1.77;;;34.40;41.40;;;;;;5050187;28;21164;-92
2022/06/17 11:55:44;;;;;;;1.50;1.40;;;31.90;39.90;;;;;;5048034;28;21187;-92
2022/06/17 11:58:12;;;;;;;1.80;1.70;;;32.90;37.60;;;;;;5051898;28;21207;-92
2022/06/17 12:00:48;;;;;;;1.57;1.47;;;33.70;35.80;;;;;;5052433;28;20618;-93
2022/06/17 12:03:18;;;;;;;1.70;1.60;;;33.90;36.00;;;;;;5054426;28;20675;-95
2022/06/17 12:05:57;;;;;;;2.17;2.07;;;34.10;39.60;;;;;;5052678;28;21108;-93
2022/06/17 12:11:21;;;;;;;1.70;1.60;;;35.30;34.50;;;;;;5050256;28;20768;-94
2022/06/17 12:13:54;;;;;;;1.40;1.30;;;36.50;34.00;;;;;;5051922;28;20649;-95
2022/06/17 12:16:28;;;;;;;1.60;1.50;;;35.80;35.50;;;;;;5056155;28;20633;-94
2022/06/17 12:18:57;;;;;;;1.50;1.40;;;36.40;34.30;;;;;;5058823;28;20634;-92
2022/06/17 12:21:36;;;;;;;1.63;1.60;;;36.50;35.60;;;;;;5052603;28;20259;-91
2022/06/17 12:24:11;;;;;;;2.65;1.60;;;36.90;32.20;;;;;;5053114;28;20219;-92
2022/06/17 12:26:48;;;;;;;1.67;1.58;;;37.10;31.90;;;;;;5051496;28;20650;-94
2022/06/17 12:29:23;;;;;;;2.10;1.50;;;37.20;32.40;;;;;;5053308;28;20210;-93
2022/06/17 12:31:56;;;;;;;1.35;1.35;;;37.50;34.60;;;;;;5055179;28;20203;-93
2022/06/17 12:34:31;;;;;;;1.20;1.20;;;38.00;36.10;;;;;;5056326;28;20583;-92
2022/06/17 12:37:03;;;;;;;1.20;1.20;;;37.50;31.60;;;;;;5054373;28;20198;-91
2022/06/17 12:39:36;;;;;;;1.75;1.60;;;36.50;31.60;;;;;;5051481;28;20237;-93
2022/06/17 12:42:09;;;;;;;1.45;1.35;;;36.40;33.70;;;;;;5051797;28;20262;-91
2022/06/17 12:44:50;;;;;;;1.63;1.52;;;36.90;31.50;;;;;;5051475;28;20207;-92
2022/06/17 12:47:25;;;;;;;1.20;1.20;;;37.40;30.70;;;;;;5050045;28;20199;-88
2022/06/17 12:55:49;;;;;;;1.40;1.40;;;38.90;29.00;;;;;;5051220;28;20195;-92
2022/06/17 12:58:29;;;;;;;1.63;1.52;;;38.90;30.00;;;;;;5052055;28;20195;-91
2022/06/17 13:01:00;;;;;;;1.30;1.23;;;38.90;30.50;;;;;;5051786;28;20231;-93
2022/06/17 13:04:01;;;;;;;1.33;1.23;;;36.50;32.20;;;;;;5050604;28;20208;-92
2022/06/17 13:06:38;;;;;;;1.03;1.03;;;37.20;31.20;;;;;;5050917;28;20216;-90
2022/06/17 13:09:12;;;;;;;1.10;1.10;;;37.20;31.90;;;;;;5051155;28;20306;-93
2022/06/17 13:11:50;;;;;;;2.10;1.30;;;37.70;32.00;;;;;;5050067;28;20205;-91
2022/06/17 13:14:28;;;;;;;1.20;1.10;;;38.40;31.90;;;;;;5050156;28;20309;-92
2022/06/17 13:17:01;;;;;;;1.10;1.08;;;39.10;30.10;;;;;;5051576;28;20217;-93
2022/06/17 13:19:36;;;;;;;1.98;0.90;;;38.20;29.90;;;;;;5052656;28;20265;-92
2022/06/17 13:22:18;;;;;;;1.40;1.30;;;38.40;30.40;;;;;;5052388;28;20292;-92
2022/06/17 13:24:53;;;;;;;1.50;1.40;;;38.20;29.90;;;;;;5050491;28;20203;-92
2022/06/17 13:27:28;;;;;;;0.95;0.95;;;38.70;29.60;;;;;;5049357;28;20203;-90
2022/06/17 13:30:04;;;;;;;1.23;1.23;;;40.10;29.70;;;;;;5049742;28;20203;-94
2022/06/17 13:32:34;;;;;;;0.98;0.98;;;39.40;29.10;;;;;;5050449;28;20594;-91
2022/06/17 13:35:16;;;;;;;1.15;1.15;;;39.70;29.70;;;;;;5049577;28;20211;-93
2022/06/17 13:37:48;;;;;;;1.60;1.50;;;40.10;29.50;;;;;;5049800;28;20277;-92